sensor_id;sensor_type;location;lat;lon;timestamp;temperature;humidity
52245;DHT22;55759;51.586;-1.758;2023-12-20T00:01:35;5.00;91.20
52245;DHT22;55759;51.586;-1.758;2023-12-20T00:04:00;4.90;91.20
52245;DHT22;55759;51.586;-1.758;2023-12-20T00:06:26;4.90;91.20
52245;DHT22;55759;51.586;-1.758;2023-12-20T00:08:52;4.90;91.20
52245;DHT22;55759;51.586;-1.758;2023-12-20T00:11:17;4.90;91.30
52245;DHT22;55759;51.586;-1.758;2023-12-20T00:13:43;4.90;91.30
52245;DHT22;55759;51.586;-1.758;2023-12-20T00:16:09;4.90;91.30
52245;DHT22;55759;51.586;-1.758;2023-12-20T00:18:34;4.90;91.30
52245;DHT22;55759;51.586;-1.758;2023-12-20T00:21:00;4.90;91.30
52245;DHT22;55759;51.586;-1.758;2023-12-20T00:23:25;4.90;91.30
52245;DHT22;55759;51.586;-1.758;2023-12-20T00:25:51;4.90;91.30
52245;DHT22;55759;51.586;-1.758;2023-12-20T00:28:16;4.90;91.20
52245;DHT22;55759;51.586;-1.758;2023-12-20T00:30:42;4.90;91.20
52245;DHT22;55759;51.586;-1.758;2023-12-20T00:33:07;4.90;91.30
52245;DHT22;55759;51.586;-1.758;2023-12-20T00:35:33;4.80;91.30
52245;DHT22;55759;51.586;-1.758;2023-12-20T00:37:59;4.90;91.40
52245;DHT22;55759;51.586;-1.758;2023-12-20T00:40:24;4.80;91.40
52245;DHT22;55759;51.586;-1.758;2023-12-20T00:42:50;4.90;91.40
52245;DHT22;55759;51.586;-1.758;2023-12-20T00:45:17;4.80;91.40
52245;DHT22;55759;51.586;-1.758;2023-12-20T00:47:42;4.80;91.40
52245;DHT22;55759;51.586;-1.758;2023-12-20T00:50:08;4.80;91.50
52245;DHT22;55759;51.586;-1.758;2023-12-20T00:52:34;4.80;91.60
52245;DHT22;55759;51.586;-1.758;2023-12-20T00:54:59;4.90;91.50
52245;DHT22;55759;51.586;-1.758;2023-12-20T00:57:29;4.90;91.50
52245;DHT22;55759;51.586;-1.758;2023-12-20T00:59:54;4.90;91.40
52245;DHT22;55759;51.586;-1.758;2023-12-20T01:02:20;4.90;91.40
52245;DHT22;55759;51.586;-1.758;2023-12-20T01:04:45;4.90;91.40
52245;DHT22;55759;51.586;-1.758;2023-12-20T01:07:11;4.90;91.30
52245;DHT22;55759;51.586;-1.758;2023-12-20T01:09:37;4.90;91.30
52245;DHT22;55759;51.586;-1.758;2023-12-20T01:12:03;4.90;91.30
52245;DHT22;55759;51.586;-1.758;2023-12-20T01:14:28;4.80;91.30
52245;DHT22;55759;51.586;-1.758;2023-12-20T01:16:54;4.90;91.30
52245;DHT22;55759;51.586;-1.758;2023-12-20T01:19:20;4.90;91.30
52245;DHT22;55759;51.586;-1.758;2023-12-20T01:21:45;4.80;91.30
52245;DHT22;55759;51.586;-1.758;2023-12-20T01:24:11;4.80;91.30
52245;DHT22;55759;51.586;-1.758;2023-12-20T01:26:36;4.80;91.30
52245;DHT22;55759;51.586;-1.758;2023-12-20T01:29:02;4.80;91.40
52245;DHT22;55759;51.586;-1.758;2023-12-20T01:31:27;4.90;91.30
52245;DHT22;55759;51.586;-1.758;2023-12-20T01:33:53;4.90;91.30
52245;DHT22;55759;51.586;-1.758;2023-12-20T01:36:19;5.00;91.30
52245;DHT22;55759;51.586;-1.758;2023-12-20T01:38:45;5.00;91.20
52245;DHT22;55759;51.586;-1.758;2023-12-20T01:41:10;5.00;91.10
52245;DHT22;55759;51.586;-1.758;2023-12-20T01:43:36;5.00;91.00
52245;DHT22;55759;51.586;-1.758;2023-12-20T01:46:02;5.00;90.90
52245;DHT22;55759;51.586;-1.758;2023-12-20T01:48:28;5.00;90.80
52245;DHT22;55759;51.586;-1.758;2023-12-20T01:50:54;5.00;90.90
52245;DHT22;55759;51.586;-1.758;2023-12-20T01:53:21;5.00;90.90
52245;DHT22;55759;51.586;-1.758;2023-12-20T01:55:47;5.00;90.90
52245;DHT22;55759;51.586;-1.758;2023-12-20T01:58:13;5.00;90.80
52245;DHT22;55759;51.586;-1.758;2023-12-20T02:00:39;5.00;90.80
52245;DHT22;55759;51.586;-1.758;2023-12-20T02:03:05;5.00;90.80
52245;DHT22;55759;51.586;-1.758;2023-12-20T02:05:33;5.00;90.70
52245;DHT22;55759;51.586;-1.758;2023-12-20T02:07:59;5.00;90.80
52245;DHT22;55759;51.586;-1.758;2023-12-20T02:10:25;5.00;90.70
52245;DHT22;55759;51.586;-1.758;2023-12-20T02:12:51;5.00;90.70
52245;DHT22;55759;51.586;-1.758;2023-12-20T02:15:16;5.00;90.80
52245;DHT22;55759;51.586;-1.758;2023-12-20T02:17:42;5.00;90.70
52245;DHT22;55759;51.586;-1.758;2023-12-20T02:20:08;5.00;90.70
52245;DHT22;55759;51.586;-1.758;2023-12-20T02:22:34;5.00;90.70
52245;DHT22;55759;51.586;-1.758;2023-12-20T02:24:59;5.00;90.70
52245;DHT22;55759;51.586;-1.758;2023-12-20T02:27:25;5.00;90.80
52245;DHT22;55759;51.586;-1.758;2023-12-20T02:29:50;5.00;90.90
52245;DHT22;55759;51.586;-1.758;2023-12-20T02:32:17;5.00;90.90
52245;DHT22;55759;51.586;-1.758;2023-12-20T02:34:43;5.00;91.00
52245;DHT22;55759;51.586;-1.758;2023-12-20T02:37:09;5.00;90.90
52245;DHT22;55759;51.586;-1.758;2023-12-20T02:39:34;5.10;91.00
52245;DHT22;55759;51.586;-1.758;2023-12-20T02:42:00;5.00;91.00
52245;DHT22;55759;51.586;-1.758;2023-12-20T02:44:26;5.00;91.10
52245;DHT22;55759;51.586;-1.758;2023-12-20T02:46:51;5.00;91.10
52245;DHT22;55759;51.586;-1.758;2023-12-20T02:49:17;5.10;91.10
52245;DHT22;55759;51.586;-1.758;2023-12-20T02:51:42;5.10;91.10
52245;DHT22;55759;51.586;-1.758;2023-12-20T02:54:08;5.10;91.10
52245;DHT22;55759;51.586;-1.758;2023-12-20T02:56:34;5.10;91.10
52245;DHT22;55759;51.586;-1.758;2023-12-20T02:58:59;5.00;91.10
52245;DHT22;55759;51.586;-1.758;2023-12-20T03:01:25;5.10;91.10
52245;DHT22;55759;51.586;-1.758;2023-12-20T03:03:51;5.00;91.20
52245;DHT22;55759;51.586;-1.758;2023-12-20T03:06:17;5.10;91.20
52245;DHT22;55759;51.586;-1.758;2023-12-20T03:08:43;5.10;91.20
52245;DHT22;55759;51.586;-1.758;2023-12-20T03:11:08;5.10;91.20
52245;DHT22;55759;51.586;-1.758;2023-12-20T03:13:34;5.10;91.20
52245;DHT22;55759;51.586;-1.758;2023-12-20T03:15:59;5.10;91.10
52245;DHT22;55759;51.586;-1.758;2023-12-20T03:18:25;5.10;91.10
52245;DHT22;55759;51.586;-1.758;2023-12-20T03:20:53;5.10;91.00
52245;DHT22;55759;51.586;-1.758;2023-12-20T03:23:18;5.10;91.10
52245;DHT22;55759;51.586;-1.758;2023-12-20T03:25:44;5.10;91.00
52245;DHT22;55759;51.586;-1.758;2023-12-20T03:28:10;5.10;91.00
52245;DHT22;55759;51.586;-1.758;2023-12-20T03:30:35;5.10;91.00
52245;DHT22;55759;51.586;-1.758;2023-12-20T03:33:01;5.00;91.00
52245;DHT22;55759;51.586;-1.758;2023-12-20T03:35:26;4.90;91.10
52245;DHT22;55759;51.586;-1.758;2023-12-20T03:37:52;4.90;91.20
52245;DHT22;55759;51.586;-1.758;2023-12-20T03:40:17;4.90;91.30
52245;DHT22;55759;51.586;-1.758;2023-12-20T03:42:46;4.90;91.30
52245;DHT22;55759;51.586;-1.758;2023-12-20T03:45:12;4.90;91.30
52245;DHT22;55759;51.586;-1.758;2023-12-20T03:47:37;4.90;91.30
52245;DHT22;55759;51.586;-1.758;2023-12-20T03:50:03;4.90;91.40
52245;DHT22;55759;51.586;-1.758;2023-12-20T03:52:28;4.90;91.50
52245;DHT22;55759;51.586;-1.758;2023-12-20T03:54:54;4.90;91.50
52245;DHT22;55759;51.586;-1.758;2023-12-20T03:57:20;4.90;91.60
52245;DHT22;55759;51.586;-1.758;2023-12-20T03:59:45;4.90;91.50
52245;DHT22;55759;51.586;-1.758;2023-12-20T04:02:12;5.00;91.60
52245;DHT22;55759;51.586;-1.758;2023-12-20T04:04:37;4.90;91.60
52245;DHT22;55759;51.586;-1.758;2023-12-20T04:07:03;4.90;91.50
52245;DHT22;55759;51.586;-1.758;2023-12-20T04:09:28;4.90;91.50
52245;DHT22;55759;51.586;-1.758;2023-12-20T04:11:54;4.90;91.50
52245;DHT22;55759;51.586;-1.758;2023-12-20T04:14:20;4.90;91.60
52245;DHT22;55759;51.586;-1.758;2023-12-20T04:16:45;4.90;91.70
52245;DHT22;55759;51.586;-1.758;2023-12-20T04:19:11;4.90;91.80
52245;DHT22;55759;51.586;-1.758;2023-12-20T04:21:36;5.00;92.00
52245;DHT22;55759;51.586;-1.758;2023-12-20T04:24:02;5.20;92.10
52245;DHT22;55759;51.586;-1.758;2023-12-20T04:26:27;5.30;92.00
52245;DHT22;55759;51.586;-1.758;2023-12-20T04:28:53;5.40;91.80
52245;DHT22;55759;51.586;-1.758;2023-12-20T04:31:18;5.40;91.70
52245;DHT22;55759;51.586;-1.758;2023-12-20T04:33:44;5.40;91.50
52245;DHT22;55759;51.586;-1.758;2023-12-20T04:36:09;5.40;91.30
52245;DHT22;55759;51.586;-1.758;2023-12-20T04:38:35;5.40;91.20
52245;DHT22;55759;51.586;-1.758;2023-12-20T04:41:00;5.40;91.20
52245;DHT22;55759;51.586;-1.758;2023-12-20T04:43:26;5.40;91.20
52245;DHT22;55759;51.586;-1.758;2023-12-20T04:45:52;5.40;91.20
52245;DHT22;55759;51.586;-1.758;2023-12-20T04:48:17;5.40;91.10
52245;DHT22;55759;51.586;-1.758;2023-12-20T04:50:43;5.40;91.20
52245;DHT22;55759;51.586;-1.758;2023-12-20T04:53:08;5.50;91.20
52245;DHT22;55759;51.586;-1.758;2023-12-20T04:55:34;5.60;91.30
52245;DHT22;55759;51.586;-1.758;2023-12-20T04:57:59;5.70;91.20
52245;DHT22;55759;51.586;-1.758;2023-12-20T05:00:25;5.90;91.00
52245;DHT22;55759;51.586;-1.758;2023-12-20T05:02:50;6.00;90.90
52245;DHT22;55759;51.586;-1.758;2023-12-20T05:05:16;6.20;90.30
52245;DHT22;55759;51.586;-1.758;2023-12-20T05:07:43;6.30;90.10
52245;DHT22;55759;51.586;-1.758;2023-12-20T05:10:09;6.40;89.70
52245;DHT22;55759;51.586;-1.758;2023-12-20T05:12:35;6.40;89.50
52245;DHT22;55759;51.586;-1.758;2023-12-20T05:15:00;6.50;89.20
52245;DHT22;55759;51.586;-1.758;2023-12-20T05:17:26;6.50;89.10
52245;DHT22;55759;51.586;-1.758;2023-12-20T05:19:51;6.50;89.20
52245;DHT22;55759;51.586;-1.758;2023-12-20T05:22:17;6.60;88.90
52245;DHT22;55759;51.586;-1.758;2023-12-20T05:24:44;6.60;88.50
52245;DHT22;55759;51.586;-1.758;2023-12-20T05:27:09;6.70;88.50
52245;DHT22;55759;51.586;-1.758;2023-12-20T05:29:35;6.70;88.20
52245;DHT22;55759;51.586;-1.758;2023-12-20T05:32:00;6.60;88.10
52245;DHT22;55759;51.586;-1.758;2023-12-20T05:34:26;6.60;88.20
52245;DHT22;55759;51.586;-1.758;2023-12-20T05:36:52;6.50;88.40
52245;DHT22;55759;51.586;-1.758;2023-12-20T05:39:17;6.50;88.50
52245;DHT22;55759;51.586;-1.758;2023-12-20T05:41:43;6.50;88.60
52245;DHT22;55759;51.586;-1.758;2023-12-20T05:44:08;6.40;88.80
52245;DHT22;55759;51.586;-1.758;2023-12-20T05:46:34;6.40;88.90
52245;DHT22;55759;51.586;-1.758;2023-12-20T05:48:59;6.40;89.10
52245;DHT22;55759;51.586;-1.758;2023-12-20T05:51:25;6.30;89.30
52245;DHT22;55759;51.586;-1.758;2023-12-20T05:53:51;6.40;89.40
52245;DHT22;55759;51.586;-1.758;2023-12-20T05:56:16;6.30;89.50
52245;DHT22;55759;51.586;-1.758;2023-12-20T05:58:42;6.40;89.60
52245;DHT22;55759;51.586;-1.758;2023-12-20T06:01:08;6.40;89.60
52245;DHT22;55759;51.586;-1.758;2023-12-20T06:03:34;6.40;89.70
52245;DHT22;55759;51.586;-1.758;2023-12-20T06:06:04;6.40;89.80
52245;DHT22;55759;51.586;-1.758;2023-12-20T06:08:29;6.40;89.80
52245;DHT22;55759;51.586;-1.758;2023-12-20T06:10:55;6.40;89.90
52245;DHT22;55759;51.586;-1.758;2023-12-20T06:13:20;6.40;89.90
52245;DHT22;55759;51.586;-1.758;2023-12-20T06:15:46;6.50;89.90
52245;DHT22;55759;51.586;-1.758;2023-12-20T06:18:12;6.50;90.00
52245;DHT22;55759;51.586;-1.758;2023-12-20T06:20:37;6.50;90.00
52245;DHT22;55759;51.586;-1.758;2023-12-20T06:23:03;6.50;89.90
52245;DHT22;55759;51.586;-1.758;2023-12-20T06:25:28;6.50;89.80
52245;DHT22;55759;51.586;-1.758;2023-12-20T06:27:54;6.50;89.90
52245;DHT22;55759;51.586;-1.758;2023-12-20T06:30:19;6.50;90.00
52245;DHT22;55759;51.586;-1.758;2023-12-20T06:32:45;6.60;90.10
52245;DHT22;55759;51.586;-1.758;2023-12-20T06:35:12;6.60;90.00
52245;DHT22;55759;51.586;-1.758;2023-12-20T06:37:37;6.70;89.80
52245;DHT22;55759;51.586;-1.758;2023-12-20T06:40:03;6.70;89.80
52245;DHT22;55759;51.586;-1.758;2023-12-20T06:42:29;6.70;89.70
52245;DHT22;55759;51.586;-1.758;2023-12-20T06:44:55;6.80;89.70
52245;DHT22;55759;51.586;-1.758;2023-12-20T06:47:20;6.90;89.50
52245;DHT22;55759;51.586;-1.758;2023-12-20T06:49:46;7.00;89.30
52245;DHT22;55759;51.586;-1.758;2023-12-20T06:52:12;7.00;89.10
52245;DHT22;55759;51.586;-1.758;2023-12-20T06:54:37;7.00;88.90
52245;DHT22;55759;51.586;-1.758;2023-12-20T06:57:03;7.00;88.90
52245;DHT22;55759;51.586;-1.758;2023-12-20T06:59:29;7.10;88.80
52245;DHT22;55759;51.586;-1.758;2023-12-20T07:01:55;7.10;88.70
52245;DHT22;55759;51.586;-1.758;2023-12-20T07:04:20;7.10;88.70
52245;DHT22;55759;51.586;-1.758;2023-12-20T07:06:47;7.10;88.70
52245;DHT22;55759;51.586;-1.758;2023-12-20T07:09:13;7.00;88.70
52245;DHT22;55759;51.586;-1.758;2023-12-20T07:11:39;7.00;88.70
52245;DHT22;55759;51.586;-1.758;2023-12-20T07:14:04;7.00;88.80
52245;DHT22;55759;51.586;-1.758;2023-12-20T07:16:30;6.90;89.00
52245;DHT22;55759;51.586;-1.758;2023-12-20T07:18:55;6.90;89.00
52245;DHT22;55759;51.586;-1.758;2023-12-20T07:21:22;6.90;89.10
52245;DHT22;55759;51.586;-1.758;2023-12-20T07:23:48;6.90;89.20
52245;DHT22;55759;51.586;-1.758;2023-12-20T07:26:13;7.00;89.20
52245;DHT22;55759;51.586;-1.758;2023-12-20T07:28:39;6.90;89.30
52245;DHT22;55759;51.586;-1.758;2023-12-20T07:31:06;6.90;89.40
52245;DHT22;55759;51.586;-1.758;2023-12-20T07:33:31;7.00;89.40
52245;DHT22;55759;51.586;-1.758;2023-12-20T07:35:57;7.10;89.40
52245;DHT22;55759;51.586;-1.758;2023-12-20T07:38:22;7.10;89.30
52245;DHT22;55759;51.586;-1.758;2023-12-20T07:40:48;7.20;89.20
52245;DHT22;55759;51.586;-1.758;2023-12-20T07:43:13;7.40;89.00
52245;DHT22;55759;51.586;-1.758;2023-12-20T07:45:39;7.40;88.60
52245;DHT22;55759;51.586;-1.758;2023-12-20T07:48:05;7.50;88.50
52245;DHT22;55759;51.586;-1.758;2023-12-20T07:50:31;7.60;88.30
52245;DHT22;55759;51.586;-1.758;2023-12-20T07:52:56;7.70;88.10
52245;DHT22;55759;51.586;-1.758;2023-12-20T07:55:24;7.70;88.00
52245;DHT22;55759;51.586;-1.758;2023-12-20T07:57:50;7.80;87.80
52245;DHT22;55759;51.586;-1.758;2023-12-20T08:00:15;7.80;87.70
52245;DHT22;55759;51.586;-1.758;2023-12-20T08:02:41;7.80;87.70
52245;DHT22;55759;51.586;-1.758;2023-12-20T08:05:07;7.90;87.60
52245;DHT22;55759;51.586;-1.758;2023-12-20T08:07:33;7.90;87.60
52245;DHT22;55759;51.586;-1.758;2023-12-20T08:09:58;7.90;87.60
52245;DHT22;55759;51.586;-1.758;2023-12-20T08:12:24;7.90;87.70
52245;DHT22;55759;51.586;-1.758;2023-12-20T08:14:53;7.90;87.60
52245;DHT22;55759;51.586;-1.758;2023-12-20T08:17:18;8.00;87.60
52245;DHT22;55759;51.586;-1.758;2023-12-20T08:19:44;8.00;87.40
52245;DHT22;55759;51.586;-1.758;2023-12-20T08:22:10;8.10;87.30
52245;DHT22;55759;51.586;-1.758;2023-12-20T08:24:36;8.10;87.40
52245;DHT22;55759;51.586;-1.758;2023-12-20T08:27:02;8.10;87.50
52245;DHT22;55759;51.586;-1.758;2023-12-20T08:29:28;8.00;87.60
52245;DHT22;55759;51.586;-1.758;2023-12-20T08:31:54;8.00;87.80
52245;DHT22;55759;51.586;-1.758;2023-12-20T08:34:20;8.00;87.90
52245;DHT22;55759;51.586;-1.758;2023-12-20T08:36:46;7.90;88.00
52245;DHT22;55759;51.586;-1.758;2023-12-20T08:39:11;8.00;88.10
52245;DHT22;55759;51.586;-1.758;2023-12-20T08:41:37;8.00;88.10
52245;DHT22;55759;51.586;-1.758;2023-12-20T08:44:02;8.10;88.10
52245;DHT22;55759;51.586;-1.758;2023-12-20T08:46:28;8.10;88.10
52245;DHT22;55759;51.586;-1.758;2023-12-20T08:48:54;8.20;88.10
52245;DHT22;55759;51.586;-1.758;2023-12-20T08:51:20;8.30;87.90
52245;DHT22;55759;51.586;-1.758;2023-12-20T08:53:48;8.40;87.80
52245;DHT22;55759;51.586;-1.758;2023-12-20T08:56:14;8.50;87.50
52245;DHT22;55759;51.586;-1.758;2023-12-20T08:58:40;8.60;87.40
52245;DHT22;55759;51.586;-1.758;2023-12-20T09:01:05;8.60;87.00
52245;DHT22;55759;51.586;-1.758;2023-12-20T09:03:31;8.70;86.90
52245;DHT22;55759;51.586;-1.758;2023-12-20T09:05:56;8.70;86.80
52245;DHT22;55759;51.586;-1.758;2023-12-20T09:08:22;8.80;86.70
52245;DHT22;55759;51.586;-1.758;2023-12-20T09:10:47;8.90;86.60
52245;DHT22;55759;51.586;-1.758;2023-12-20T09:13:13;8.90;86.40
52245;DHT22;55759;51.586;-1.758;2023-12-20T09:15:38;8.80;86.30
52245;DHT22;55759;51.586;-1.758;2023-12-20T09:18:04;8.70;86.50
52245;DHT22;55759;51.586;-1.758;2023-12-20T09:20:30;8.70;86.70
52245;DHT22;55759;51.586;-1.758;2023-12-20T09:22:55;8.80;86.70
52245;DHT22;55759;51.586;-1.758;2023-12-20T09:25:21;8.90;86.50
52245;DHT22;55759;51.586;-1.758;2023-12-20T09:27:48;8.90;86.40
52245;DHT22;55759;51.586;-1.758;2023-12-20T09:30:14;8.90;86.30
52245;DHT22;55759;51.586;-1.758;2023-12-20T09:32:39;9.00;86.20
52245;DHT22;55759;51.586;-1.758;2023-12-20T09:35:05;9.00;86.10
52245;DHT22;55759;51.586;-1.758;2023-12-20T09:37:31;9.00;86.10
52245;DHT22;55759;51.586;-1.758;2023-12-20T09:39:57;9.00;86.10
52245;DHT22;55759;51.586;-1.758;2023-12-20T09:42:25;9.00;86.00
52245;DHT22;55759;51.586;-1.758;2023-12-20T09:44:54;9.00;86.00
52245;DHT22;55759;51.586;-1.758;2023-12-20T09:47:20;9.00;85.70
52245;DHT22;55759;51.586;-1.758;2023-12-20T09:49:48;9.00;85.60
52245;DHT22;55759;51.586;-1.758;2023-12-20T09:52:14;9.00;85.60
52245;DHT22;55759;51.586;-1.758;2023-12-20T09:54:41;9.00;85.80
52245;DHT22;55759;51.586;-1.758;2023-12-20T09:57:07;9.10;85.60
52245;DHT22;55759;51.586;-1.758;2023-12-20T09:59:32;9.10;85.60
52245;DHT22;55759;51.586;-1.758;2023-12-20T10:01:58;9.10;85.60
52245;DHT22;55759;51.586;-1.758;2023-12-20T10:04:26;9.10;85.30
52245;DHT22;55759;51.586;-1.758;2023-12-20T10:06:53;9.10;85.60
52245;DHT22;55759;51.586;-1.758;2023-12-20T10:09:18;9.10;85.30
52245;DHT22;55759;51.586;-1.758;2023-12-20T10:11:44;9.10;85.20
52245;DHT22;55759;51.586;-1.758;2023-12-20T10:14:10;9.10;85.30
52245;DHT22;55759;51.586;-1.758;2023-12-20T10:16:35;9.20;85.20
52245;DHT22;55759;51.586;-1.758;2023-12-20T10:19:01;9.20;84.90
52245;DHT22;55759;51.586;-1.758;2023-12-20T10:21:27;9.20;85.10
52245;DHT22;55759;51.586;-1.758;2023-12-20T10:23:56;9.20;85.00
52245;DHT22;55759;51.586;-1.758;2023-12-20T10:26:22;9.30;84.70
52245;DHT22;55759;51.586;-1.758;2023-12-20T10:28:55;9.40;84.70
52245;DHT22;55759;51.586;-1.758;2023-12-20T10:31:30;9.40;84.50
52245;DHT22;55759;51.586;-1.758;2023-12-20T10:34:00;9.50;84.40
52245;DHT22;55759;51.586;-1.758;2023-12-20T10:36:26;9.50;84.30
52245;DHT22;55759;51.586;-1.758;2023-12-20T10:38:52;9.50;84.10
52245;DHT22;55759;51.586;-1.758;2023-12-20T10:41:19;9.60;84.00
52245;DHT22;55759;51.586;-1.758;2023-12-20T10:43:46;9.60;84.00
52245;DHT22;55759;51.586;-1.758;2023-12-20T10:46:12;9.60;84.60
52245;DHT22;55759;51.586;-1.758;2023-12-20T10:48:37;9.60;84.10
52245;DHT22;55759;51.586;-1.758;2023-12-20T10:51:04;9.60;84.20
52245;DHT22;55759;51.586;-1.758;2023-12-20T10:53:30;9.60;84.10
52245;DHT22;55759;51.586;-1.758;2023-12-20T10:55:56;9.70;84.30
52245;DHT22;55759;51.586;-1.758;2023-12-20T10:58:24;9.70;84.20
52245;DHT22;55759;51.586;-1.758;2023-12-20T11:00:50;9.70;84.00
52245;DHT22;55759;51.586;-1.758;2023-12-20T11:03:21;9.70;84.40
52245;DHT22;55759;51.586;-1.758;2023-12-20T11:05:54;9.70;84.20
52245;DHT22;55759;51.586;-1.758;2023-12-20T11:08:28;9.80;84.30
52245;DHT22;55759;51.586;-1.758;2023-12-20T11:10:59;9.90;84.20
52245;DHT22;55759;51.586;-1.758;2023-12-20T11:13:29;9.90;84.20
52245;DHT22;55759;51.586;-1.758;2023-12-20T11:15:56;9.90;83.80
52245;DHT22;55759;51.586;-1.758;2023-12-20T11:18:28;10.00;83.90
52245;DHT22;55759;51.586;-1.758;2023-12-20T11:20:53;10.10;83.80
52245;DHT22;55759;51.586;-1.758;2023-12-20T11:23:19;10.10;83.60
52245;DHT22;55759;51.586;-1.758;2023-12-20T11:25:53;10.20;83.20
52245;DHT22;55759;51.586;-1.758;2023-12-20T11:28:22;10.20;82.80
52245;DHT22;55759;51.586;-1.758;2023-12-20T11:33:14;10.20;82.70
52245;DHT22;55759;51.586;-1.758;2023-12-20T11:35:40;10.20;82.80
52245;DHT22;55759;51.586;-1.758;2023-12-20T11:38:09;10.30;82.60
52245;DHT22;55759;51.586;-1.758;2023-12-20T11:40:35;10.30;82.80
52245;DHT22;55759;51.586;-1.758;2023-12-20T11:43:02;10.40;82.80
52245;DHT22;55759;51.586;-1.758;2023-12-20T11:45:30;10.50;82.50
52245;DHT22;55759;51.586;-1.758;2023-12-20T11:47:56;10.50;82.20
52245;DHT22;55759;51.586;-1.758;2023-12-20T11:50:23;10.50;82.10
52245;DHT22;55759;51.586;-1.758;2023-12-20T11:52:49;10.60;82.20
52245;DHT22;55759;51.586;-1.758;2023-12-20T11:55:14;10.50;82.10
52245;DHT22;55759;51.586;-1.758;2023-12-20T11:57:41;10.60;82.40
52245;DHT22;55759;51.586;-1.758;2023-12-20T12:00:07;10.60;82.20
52245;DHT22;55759;51.586;-1.758;2023-12-20T12:02:33;10.50;82.50
52245;DHT22;55759;51.586;-1.758;2023-12-20T12:04:59;10.60;82.60
52245;DHT22;55759;51.586;-1.758;2023-12-20T12:07:25;10.60;82.30
52245;DHT22;55759;51.586;-1.758;2023-12-20T12:09:51;10.70;82.10
52245;DHT22;55759;51.586;-1.758;2023-12-20T12:12:17;10.80;82.10
52245;DHT22;55759;51.586;-1.758;2023-12-20T12:14:44;10.90;81.80
52245;DHT22;55759;51.586;-1.758;2023-12-20T12:17:10;11.00;81.70
52245;DHT22;55759;51.586;-1.758;2023-12-20T12:19:37;11.00;81.50
52245;DHT22;55759;51.586;-1.758;2023-12-20T12:22:06;11.10;81.30
52245;DHT22;55759;51.586;-1.758;2023-12-20T12:24:38;11.10;81.40
52245;DHT22;55759;51.586;-1.758;2023-12-20T12:27:05;11.10;81.00
52245;DHT22;55759;51.586;-1.758;2023-12-20T12:29:31;11.20;81.00
52245;DHT22;55759;51.586;-1.758;2023-12-20T12:31:56;11.10;81.10
52245;DHT22;55759;51.586;-1.758;2023-12-20T12:34:22;11.20;81.20
52245;DHT22;55759;51.586;-1.758;2023-12-20T12:36:48;11.10;81.30
52245;DHT22;55759;51.586;-1.758;2023-12-20T12:39:13;11.10;81.40
52245;DHT22;55759;51.586;-1.758;2023-12-20T12:41:40;11.00;81.40
52245;DHT22;55759;51.586;-1.758;2023-12-20T12:44:06;11.10;81.60
52245;DHT22;55759;51.586;-1.758;2023-12-20T12:46:32;11.10;81.80
52245;DHT22;55759;51.586;-1.758;2023-12-20T12:48:58;11.10;81.50
52245;DHT22;55759;51.586;-1.758;2023-12-20T12:51:23;11.20;81.40
52245;DHT22;55759;51.586;-1.758;2023-12-20T12:53:49;11.40;81.00
52245;DHT22;55759;51.586;-1.758;2023-12-20T12:56:15;11.50;81.10
52245;DHT22;55759;51.586;-1.758;2023-12-20T12:58:40;11.60;80.90
52245;DHT22;55759;51.586;-1.758;2023-12-20T13:01:06;11.90;80.10
52245;DHT22;55759;51.586;-1.758;2023-12-20T13:03:31;11.90;79.20
52245;DHT22;55759;51.586;-1.758;2023-12-20T13:05:57;11.90;79.00
52245;DHT22;55759;51.586;-1.758;2023-12-20T13:08:23;11.80;79.10
52245;DHT22;55759;51.586;-1.758;2023-12-20T13:10:48;11.70;79.40
52245;DHT22;55759;51.586;-1.758;2023-12-20T13:13:14;11.60;79.50
52245;DHT22;55759;51.586;-1.758;2023-12-20T13:15:40;11.60;79.90
52245;DHT22;55759;51.586;-1.758;2023-12-20T13:18:06;11.60;80.10
52245;DHT22;55759;51.586;-1.758;2023-12-20T13:20:32;11.40;80.50
52245;DHT22;55759;51.586;-1.758;2023-12-20T13:22:58;11.40;81.00
52245;DHT22;55759;51.586;-1.758;2023-12-20T13:25:24;11.30;80.50
52245;DHT22;55759;51.586;-1.758;2023-12-20T13:27:50;11.20;80.90
52245;DHT22;55759;51.586;-1.758;2023-12-20T13:30:16;11.20;81.00
52245;DHT22;55759;51.586;-1.758;2023-12-20T13:32:42;11.20;80.80
52245;DHT22;55759;51.586;-1.758;2023-12-20T13:35:07;11.10;81.00
52245;DHT22;55759;51.586;-1.758;2023-12-20T13:37:33;11.10;80.90
52245;DHT22;55759;51.586;-1.758;2023-12-20T13:39:58;11.10;81.20
52245;DHT22;55759;51.586;-1.758;2023-12-20T13:42:24;11.10;81.10
52245;DHT22;55759;51.586;-1.758;2023-12-20T13:44:53;11.00;81.20
52245;DHT22;55759;51.586;-1.758;2023-12-20T13:47:18;11.00;81.50
52245;DHT22;55759;51.586;-1.758;2023-12-20T13:49:44;11.00;81.60
52245;DHT22;55759;51.586;-1.758;2023-12-20T13:52:10;11.00;81.60
52245;DHT22;55759;51.586;-1.758;2023-12-20T13:54:37;10.90;81.80
52245;DHT22;55759;51.586;-1.758;2023-12-20T13:57:02;10.90;82.10
52245;DHT22;55759;51.586;-1.758;2023-12-20T13:59:28;10.90;82.40
52245;DHT22;55759;51.586;-1.758;2023-12-20T14:01:54;10.80;82.60
52245;DHT22;55759;51.586;-1.758;2023-12-20T14:04:20;10.80;82.40
52245;DHT22;55759;51.586;-1.758;2023-12-20T14:06:47;10.80;82.50
52245;DHT22;55759;51.586;-1.758;2023-12-20T14:09:12;10.80;82.80
52245;DHT22;55759;51.586;-1.758;2023-12-20T14:11:38;10.80;82.80
52245;DHT22;55759;51.586;-1.758;2023-12-20T14:14:06;10.80;82.90
52245;DHT22;55759;51.586;-1.758;2023-12-20T14:16:33;10.80;83.00
52245;DHT22;55759;51.586;-1.758;2023-12-20T14:18:59;10.80;83.60
52245;DHT22;55759;51.586;-1.758;2023-12-20T14:21:24;10.70;84.10
52245;DHT22;55759;51.586;-1.758;2023-12-20T14:23:50;10.70;84.30
52245;DHT22;55759;51.586;-1.758;2023-12-20T14:26:17;10.70;84.30
52245;DHT22;55759;51.586;-1.758;2023-12-20T14:28:43;10.60;84.60
52245;DHT22;55759;51.586;-1.758;2023-12-20T14:31:09;10.60;84.60
52245;DHT22;55759;51.586;-1.758;2023-12-20T14:33:35;10.60;84.70
52245;DHT22;55759;51.586;-1.758;2023-12-20T14:36:01;10.60;84.70
52245;DHT22;55759;51.586;-1.758;2023-12-20T14:38:30;10.60;84.60
52245;DHT22;55759;51.586;-1.758;2023-12-20T14:40:56;10.60;84.70
52245;DHT22;55759;51.586;-1.758;2023-12-20T14:43:22;10.70;84.80
52245;DHT22;55759;51.586;-1.758;2023-12-20T14:45:48;10.70;84.80
52245;DHT22;55759;51.586;-1.758;2023-12-20T14:48:13;10.70;84.90
52245;DHT22;55759;51.586;-1.758;2023-12-20T14:50:39;10.60;85.10
52245;DHT22;55759;51.586;-1.758;2023-12-20T14:53:06;10.70;85.30
52245;DHT22;55759;51.586;-1.758;2023-12-20T14:55:32;10.70;85.20
52245;DHT22;55759;51.586;-1.758;2023-12-20T14:57:57;10.70;85.20
52245;DHT22;55759;51.586;-1.758;2023-12-20T15:00:23;10.70;85.20
52245;DHT22;55759;51.586;-1.758;2023-12-20T15:02:49;10.70;85.40
52245;DHT22;55759;51.586;-1.758;2023-12-20T15:05:14;10.60;85.30
52245;DHT22;55759;51.586;-1.758;2023-12-20T15:07:40;10.70;85.20
52245;DHT22;55759;51.586;-1.758;2023-12-20T15:10:06;10.60;85.20
52245;DHT22;55759;51.586;-1.758;2023-12-20T15:12:32;10.60;85.00
52245;DHT22;55759;51.586;-1.758;2023-12-20T15:14:59;10.60;84.90
52245;DHT22;55759;51.586;-1.758;2023-12-20T15:17:24;10.60;85.10
52245;DHT22;55759;51.586;-1.758;2023-12-20T15:19:51;10.50;85.40
52245;DHT22;55759;51.586;-1.758;2023-12-20T15:22:16;10.50;85.50